createdAt,value
2023-01-21T00:01:34.843Z,1.10
2023-01-21T00:04:04.571Z,1.10
2023-01-21T00:06:31.876Z,1.10
2023-01-21T00:09:00.867Z,1.10
2023-01-21T00:11:28.089Z,1.10
2023-01-21T00:13:57.888Z,1.10
2023-01-21T00:16:25.213Z,1.10
2023-01-21T00:18:52.330Z,1.00
2023-01-21T00:21:19.489Z,1.00
2023-01-21T00:23:46.780Z,1.00
2023-01-21T00:26:14.081Z,1.00
2023-01-21T00:28:44.328Z,1.00
2023-01-21T00:31:12.101Z,1.00
2023-01-21T00:33:39.588Z,1.00
2023-01-21T00:36:11.268Z,1.00
2023-01-21T00:38:38.548Z,1.00
2023-01-21T00:41:11.945Z,1.00
2023-01-21T00:43:40.196Z,1.00
2023-01-21T00:46:07.903Z,0.90
2023-01-21T00:48:37.077Z,1.00
2023-01-21T00:51:04.360Z,1.00
2023-01-21T00:53:35.682Z,1.00
2023-01-21T00:56:09.598Z,0.90
2023-01-21T00:58:37.375Z,1.00
2023-01-21T01:01:13.856Z,0.90
2023-01-21T01:03:41.204Z,0.90
2023-01-21T01:06:22.507Z,0.90
2023-01-21T01:08:50.115Z,0.90
2023-01-21T01:11:18.162Z,0.90
2023-01-21T01:13:45.412Z,0.90
2023-01-21T01:16:15.629Z,0.90
2023-01-21T01:18:43.421Z,1.00
2023-01-21T01:21:13.305Z,1.00
2023-01-21T01:23:43.256Z,1.00
2023-01-21T01:26:13.712Z,1.00
2023-01-21T01:28:40.936Z,1.00
2023-01-21T01:31:11.746Z,1.00
2023-01-21T01:33:39.238Z,1.00
2023-01-21T01:36:11.796Z,1.00
2023-01-21T01:38:39.019Z,0.90
2023-01-21T01:41:06.421Z,1.00
2023-01-21T01:43:58.889Z,1.00
2023-01-21T01:46:32.916Z,0.90
2023-01-21T01:49:06.008Z,0.90
2023-01-21T01:51:46.903Z,1.00
2023-01-21T01:54:19.326Z,1.00
2023-01-21T01:56:53.005Z,1.00
2023-01-21T01:59:21.635Z,1.00
2023-01-21T02:01:49.115Z,1.00
2023-01-21T02:04:22.337Z,1.10
2023-01-21T02:06:52.408Z,1.00
2023-01-21T02:09:19.677Z,1.00
2023-01-21T02:11:47.503Z,1.00
2023-01-21T02:14:14.773Z,1.00
2023-01-21T02:17:17.568Z,1.00
2023-01-21T02:20:28.278Z,1.00
2023-01-21T02:23:00.227Z,1.00
2023-01-21T02:26:01.172Z,1.10
2023-01-21T02:28:53.233Z,1.10
2023-01-21T02:31:33.048Z,1.00
2023-01-21T02:34:37.713Z,1.00
2023-01-21T02:37:26.377Z,0.90
2023-01-21T02:40:07.740Z,1.00
2023-01-21T02:42:34.837Z,1.00
2023-01-21T02:45:28.662Z,1.00
2023-01-21T02:48:06.568Z,0.90
2023-01-21T02:50:38.367Z,1.00
2023-01-21T02:53:05.824Z,1.00
2023-01-21T02:55:38.149Z,1.00
2023-01-21T02:58:17.915Z,0.90
2023-01-21T03:01:12.792Z,1.00
2023-01-21T03:03:49.618Z,1.00
2023-01-21T03:06:34.916Z,1.00
2023-01-21T03:09:16.991Z,1.00
2023-01-21T03:11:53.443Z,1.00
2023-01-21T03:14:45.098Z,1.00
2023-01-21T03:17:34.578Z,1.00
2023-01-21T03:20:28.725Z,1.00
2023-01-21T03:23:02.226Z,1.00
2023-01-21T03:25:35.210Z,1.10
2023-01-21T03:28:07.733Z,1.00
2023-01-21T03:30:36.210Z,1.00
2023-01-21T03:33:04.922Z,1.00
2023-01-21T03:35:37.083Z,1.00
2023-01-21T03:38:16.459Z,1.00
2023-01-21T03:40:53.438Z,1.00
2023-01-21T03:43:20.928Z,1.00
2023-01-21T03:46:09.042Z,1.00
2023-01-21T03:48:59.707Z,1.00
2023-01-21T03:51:34.183Z,1.00
2023-01-21T03:54:01.374Z,1.00
2023-01-21T03:56:29.869Z,1.00
2023-01-21T03:58:57.101Z,1.10
2023-01-21T04:01:26.900Z,1.10
2023-01-21T04:03:54.071Z,1.00
2023-01-21T04:06:24.664Z,1.00
2023-01-21T04:08:51.797Z,1.10
2023-01-21T04:11:18.963Z,1.10
2023-01-21T04:13:46.092Z,1.10
2023-01-21T04:16:13.545Z,1.10
2023-01-21T04:18:41.052Z,1.00
2023-01-21T04:21:10.775Z,1.00
2023-01-21T04:23:37.991Z,1.10
2023-01-21T04:26:05.559Z,1.10
2023-01-21T04:28:32.713Z,1.00
2023-01-21T04:31:00.547Z,1.00
2023-01-21T04:33:27.758Z,1.00
2023-01-21T04:35:59.657Z,1.00
2023-01-21T04:38:30.509Z,1.00
2023-01-21T04:40:57.725Z,1.10
2023-01-21T04:43:24.977Z,1.10
2023-01-21T04:45:52.932Z,1.10
2023-01-21T04:48:20.232Z,1.10
2023-01-21T04:50:48.703Z,1.10
2023-01-21T04:53:17.118Z,1.10
2023-01-21T04:55:44.396Z,1.10
2023-01-21T04:58:13.180Z,1.10
2023-01-21T05:00:40.383Z,1.00
2023-01-21T05:03:07.604Z,1.00
2023-01-21T05:05:34.800Z,1.00
2023-01-21T05:08:01.945Z,1.00
2023-01-21T05:10:31.528Z,1.00
2023-01-21T05:12:59.359Z,1.10
2023-01-21T05:15:26.731Z,1.10
2023-01-21T05:17:53.955Z,1.00
2023-01-21T05:20:21.215Z,1.00
2023-01-21T05:22:48.928Z,1.00
2023-01-21T05:25:16.914Z,1.00
2023-01-21T05:27:44.343Z,1.00
2023-01-21T05:30:11.872Z,1.00
2023-01-21T05:32:39.972Z,1.10
2023-01-21T05:35:07.745Z,1.10
2023-01-21T05:37:34.926Z,1.10
2023-01-21T05:40:02.288Z,1.20
2023-01-21T05:42:29.661Z,1.20
2023-01-21T05:44:56.903Z,1.10
2023-01-21T05:47:24.204Z,1.10
2023-01-21T05:49:51.345Z,1.10
2023-01-21T05:52:18.751Z,1.00
2023-01-21T05:55:01.071Z,1.10
2023-01-21T05:57:29.678Z,1.10
2023-01-21T05:59:57.028Z,1.10
2023-01-21T06:02:24.362Z,1.10
2023-01-21T06:04:51.615Z,1.10
2023-01-21T06:07:18.928Z,1.00
2023-01-21T06:09:46.085Z,1.00
2023-01-21T06:12:13.292Z,1.10
2023-01-21T06:14:40.597Z,1.10
2023-01-21T06:17:08.085Z,1.10
2023-01-21T06:19:35.287Z,1.10
2023-01-21T06:22:03.490Z,1.10
2023-01-21T06:24:30.641Z,1.10
2023-01-21T06:26:57.806Z,1.10
2023-01-21T06:29:25.061Z,1.10
2023-01-21T06:31:52.760Z,1.10
2023-01-21T06:34:20.023Z,1.00
2023-01-21T06:36:47.167Z,1.00
2023-01-21T06:39:14.496Z,1.00
2023-01-21T06:41:41.687Z,0.90
2023-01-21T06:44:09.014Z,0.90
2023-01-21T06:46:36.293Z,1.00
2023-01-21T06:49:03.637Z,1.00
2023-01-21T06:51:31.522Z,1.00
2023-01-21T06:53:59.720Z,1.00
2023-01-21T06:56:26.996Z,1.00
2023-01-21T06:58:54.225Z,1.00
2023-01-21T07:01:24.068Z,1.10
2023-01-21T07:03:51.510Z,1.10
2023-01-21T07:06:18.670Z,1.10
2023-01-21T07:08:45.833Z,1.10
2023-01-21T07:11:13.054Z,1.10
2023-01-21T07:13:40.329Z,1.10
2023-01-21T07:16:08.187Z,1.00
2023-01-21T07:18:35.651Z,1.00
2023-01-21T07:21:02.981Z,1.00
2023-01-21T07:23:30.447Z,1.10
2023-01-21T07:26:01.912Z,1.20
2023-01-21T07:28:29.039Z,1.20
2023-01-21T07:30:59.833Z,1.20
2023-01-21T07:33:27.814Z,1.20
2023-01-21T07:35:55.212Z,1.30
2023-01-21T07:38:22.504Z,1.30
2023-01-21T07:40:50.067Z,1.20
2023-01-21T07:43:17.799Z,1.20
2023-01-21T07:45:45.390Z,1.30
2023-01-21T07:48:12.653Z,1.20
2023-01-21T07:50:39.939Z,1.20
2023-01-21T07:53:07.341Z,1.20
2023-01-21T07:55:34.535Z,1.20
2023-01-21T08:00:59.614Z,1.20
2023-01-21T08:03:27.996Z,1.30
2023-01-21T08:05:55.218Z,1.30
2023-01-21T08:08:22.400Z,1.30
2023-01-21T08:10:55.478Z,1.40
2023-01-21T08:13:22.933Z,1.30
2023-01-21T08:15:55.468Z,1.30
2023-01-21T08:18:24.066Z,1.30
2023-01-21T08:20:58.219Z,1.30
2023-01-21T08:23:26.409Z,1.40
2023-01-21T08:25:54.002Z,1.40
2023-01-21T08:28:22.493Z,1.40
2023-01-21T08:30:49.887Z,1.50
2023-01-21T08:33:17.077Z,1.40
2023-01-21T08:35:44.323Z,1.40
2023-01-21T08:38:11.635Z,1.50
2023-01-21T08:40:38.995Z,1.50
2023-01-21T08:43:09.226Z,1.50
2023-01-21T08:45:36.445Z,1.50
2023-01-21T08:48:04.084Z,1.60
2023-01-21T08:50:31.246Z,1.60
2023-01-21T08:52:58.440Z,1.60
2023-01-21T08:55:26.856Z,1.60
2023-01-21T08:57:55.917Z,1.70
2023-01-21T09:00:24.010Z,1.80
2023-01-21T09:02:51.909Z,1.90
2023-01-21T09:05:19.897Z,2.00
2023-01-21T09:07:47.242Z,1.90
2023-01-21T09:10:48.023Z,2.00
2023-01-21T09:13:16.501Z,2.10
2023-01-21T09:15:44.531Z,2.10
2023-01-21T09:18:11.968Z,2.20
2023-01-21T09:20:39.934Z,2.30
2023-01-21T09:23:24.632Z,2.40
2023-01-21T09:25:52.876Z,2.40
2023-01-21T09:28:22.197Z,2.50
2023-01-21T09:30:49.370Z,2.60
2023-01-21T09:33:16.523Z,2.60
2023-01-21T09:35:44.477Z,2.60
2023-01-21T09:38:12.905Z,2.50
2023-01-21T09:40:45.348Z,2.50
2023-01-21T09:43:20.737Z,2.50
2023-01-21T09:45:49.289Z,2.40
2023-01-21T09:48:29.505Z,2.40
2023-01-21T09:51:02.664Z,2.30
2023-01-21T09:53:41.787Z,2.30
2023-01-21T09:56:28.296Z,2.20
2023-01-21T09:59:10.500Z,2.30
2023-01-21T10:01:41.291Z,2.20
2023-01-21T10:04:37.894Z,2.20
2023-01-21T10:07:27.870Z,2.10
2023-01-21T10:10:16.320Z,2.20
2023-01-21T10:13:07.750Z,2.10
2023-01-21T10:15:58.364Z,2.10
2023-01-21T10:18:31.931Z,2.10
2023-01-21T10:21:05.046Z,2.10
2023-01-21T10:23:43.229Z,2.10
2023-01-21T10:26:13.405Z,2.20
2023-01-21T10:28:48.952Z,2.20
2023-01-21T10:31:32.780Z,2.20
2023-01-21T10:34:00.171Z,2.40
2023-01-21T10:36:30.095Z,2.60
2023-01-21T10:39:15.290Z,2.80
2023-01-21T10:42:10.531Z,2.90
2023-01-21T10:45:15.655Z,3.00
2023-01-21T10:48:03.704Z,3.00
2023-01-21T10:51:03.840Z,3.00
2023-01-21T10:53:42.165Z,3.00
2023-01-21T10:56:48.555Z,2.80
2023-01-21T10:59:22.296Z,2.70
2023-01-21T11:01:55.178Z,2.60
2023-01-21T11:04:24.413Z,2.70
2023-01-21T11:07:05.769Z,2.70
2023-01-21T11:09:37.396Z,2.70
2023-01-21T11:12:05.102Z,2.60
2023-01-21T11:14:33.873Z,2.60
2023-01-21T11:17:01.800Z,2.60
2023-01-21T11:19:31.203Z,2.60
2023-01-21T11:22:06.168Z,2.50
2023-01-21T11:24:43.630Z,2.50
2023-01-21T11:27:21.739Z,2.50
2023-01-21T11:29:50.721Z,2.60
2023-01-21T11:32:22.468Z,2.60
2023-01-21T11:34:52.737Z,2.60
2023-01-21T11:37:30.933Z,2.70
2023-01-21T11:40:01.690Z,2.80
2023-01-21T11:42:28.982Z,2.80
2023-01-21T11:45:04.408Z,2.80
2023-01-21T11:47:40.485Z,2.90
2023-01-21T11:50:13.630Z,3.00
2023-01-21T11:52:40.817Z,3.10
2023-01-21T11:55:23.326Z,3.20
2023-01-21T11:57:53.891Z,3.20
2023-01-21T12:00:24.012Z,3.20
2023-01-21T12:03:00.001Z,3.30
2023-01-21T12:05:41.441Z,3.40
2023-01-21T12:08:20.907Z,3.50
2023-01-21T12:10:55.932Z,3.60
2023-01-21T12:13:34.714Z,3.80
2023-01-21T12:16:20.499Z,3.90
2023-01-21T12:19:19.175Z,3.90
2023-01-21T12:22:19.730Z,3.80
2023-01-21T12:25:38.383Z,3.80
2023-01-21T12:28:11.442Z,3.70
2023-01-21T12:30:59.188Z,3.80
2023-01-21T12:33:32.360Z,3.90
2023-01-21T12:36:06.034Z,3.90
2023-01-21T12:38:41.015Z,3.80
2023-01-21T12:41:30.992Z,3.90
2023-01-21T12:44:48.884Z,3.90
2023-01-21T12:47:36.506Z,4.00
2023-01-21T12:50:08.173Z,4.10
2023-01-21T12:52:48.287Z,4.10
2023-01-21T12:55:30.417Z,4.10
2023-01-21T12:58:04.571Z,4.10
2023-01-21T13:00:35.726Z,4.10
2023-01-21T13:03:18.150Z,4.10
2023-01-21T13:05:56.761Z,4.10
2023-01-21T13:08:45.204Z,4.10
2023-01-21T13:11:15.223Z,4.10
2023-01-21T13:13:50.565Z,4.10
2023-01-21T13:16:19.075Z,4.00
2023-01-21T13:18:52.155Z,4.00
2023-01-21T13:21:43.628Z,3.90
2023-01-21T13:24:29.151Z,3.70
2023-01-21T13:27:02.348Z,3.70
2023-01-21T13:29:45.075Z,3.70
2023-01-21T13:32:24.195Z,3.70
2023-01-21T13:35:12.703Z,3.70
2023-01-21T13:38:02.840Z,3.60
2023-01-21T13:40:39.529Z,3.50
2023-01-21T13:43:28.417Z,3.60
2023-01-21T13:46:13.831Z,3.60
2023-01-21T13:48:59.317Z,3.60
2023-01-21T13:52:09.420Z,3.50
2023-01-21T13:54:40.490Z,3.50
2023-01-21T13:57:13.459Z,3.50
2023-01-21T13:59:40.627Z,3.50
2023-01-21T14:02:34.682Z,3.50
2023-01-21T14:05:11.445Z,3.40
2023-01-21T14:07:44.800Z,3.40
2023-01-21T14:10:28.094Z,3.40
2023-01-21T14:13:07.030Z,3.30
2023-01-21T14:16:02.488Z,3.30
2023-01-21T14:18:50.011Z,3.30
2023-01-21T14:21:39.806Z,3.30
2023-01-21T14:24:32.813Z,3.20
2023-01-21T14:27:25.749Z,3.20
2023-01-21T14:30:03.595Z,3.10
2023-01-21T14:32:42.444Z,3.10
2023-01-21T14:35:15.879Z,3.00
2023-01-21T14:38:01.979Z,3.00
2023-01-21T14:40:29.076Z,3.10
2023-01-21T14:42:56.323Z,3.10
2023-01-21T14:45:54.172Z,3.00
2023-01-21T14:48:28.848Z,3.00
2023-01-21T14:51:11.728Z,2.90
2023-01-21T14:54:01.281Z,2.90
2023-01-21T14:56:33.942Z,2.90
2023-01-21T14:59:05.915Z,2.90
2023-01-21T15:01:44.152Z,2.90
2023-01-21T15:04:29.744Z,2.90
2023-01-21T15:07:00.572Z,2.80
2023-01-21T15:09:32.660Z,2.80
2023-01-21T15:12:03.452Z,2.80
2023-01-21T15:14:34.702Z,2.70
2023-01-21T15:17:02.504Z,2.70
2023-01-21T15:19:34.665Z,2.70
2023-01-21T15:22:22.847Z,2.70
2023-01-21T15:25:17.495Z,2.70
2023-01-21T15:28:22.571Z,2.70
2023-01-21T15:31:02.815Z,2.70
2023-01-21T15:33:31.518Z,2.60
2023-01-21T15:36:00.466Z,2.60
2023-01-21T15:38:28.226Z,2.60
2023-01-21T15:41:02.039Z,2.60
2023-01-21T15:43:40.764Z,2.60
2023-01-21T15:46:16.948Z,2.60
2023-01-21T15:49:23.032Z,2.60
2023-01-21T15:52:09.085Z,2.50
2023-01-21T15:54:54.601Z,2.60
2023-01-21T15:57:53.874Z,2.50
2023-01-21T16:00:24.358Z,2.50
2023-01-21T16:02:58.784Z,2.60
2023-01-21T16:06:02.167Z,2.60
2023-01-21T16:08:55.151Z,2.50
2023-01-21T16:11:50.444Z,2.50
2023-01-21T16:14:54.252Z,2.50
2023-01-21T16:18:09.987Z,2.50
2023-01-21T16:20:41.574Z,2.50
2023-01-21T16:23:08.923Z,2.50
2023-01-21T16:25:46.273Z,2.50
2023-01-21T16:28:13.643Z,2.50
2023-01-21T16:30:40.950Z,2.50
2023-01-21T16:33:13.489Z,2.50
2023-01-21T16:35:51.476Z,2.50
2023-01-21T16:38:21.887Z,2.50
2023-01-21T16:40:51.176Z,2.50
2023-01-21T16:43:24.806Z,2.50
2023-01-21T16:45:57.954Z,2.50
2023-01-21T16:48:29.140Z,2.50
2023-01-21T16:50:56.685Z,2.50
2023-01-21T16:53:26.059Z,2.50
2023-01-21T16:55:56.395Z,2.40
2023-01-21T16:58:28.764Z,2.50
2023-01-21T17:01:06.111Z,2.40
2023-01-21T17:03:33.803Z,2.50
2023-01-21T17:06:10.803Z,2.50
2023-01-21T17:08:39.115Z,2.50
2023-01-21T17:11:11.629Z,2.40
2023-01-21T17:13:43.879Z,2.40
2023-01-21T17:16:26.671Z,2.40
2023-01-21T17:18:59.691Z,2.40
2023-01-21T17:21:55.544Z,2.40
2023-01-21T17:24:38.370Z,2.40
2023-01-21T17:27:11.571Z,2.40
2023-01-21T17:29:39.321Z,2.40
2023-01-21T17:32:31.865Z,2.40
2023-01-21T17:35:06.063Z,2.40
2023-01-21T17:37:45.675Z,2.40
2023-01-21T17:40:27.455Z,2.40
2023-01-21T17:42:56.074Z,2.50
2023-01-21T17:45:53.047Z,2.50
2023-01-21T17:48:27.524Z,2.50
2023-01-21T17:51:31.055Z,2.40
2023-01-21T17:57:34.868Z,2.40
2023-01-21T18:00:02.383Z,2.40
2023-01-21T18:02:30.741Z,2.40
2023-01-21T18:04:57.891Z,2.40
2023-01-21T18:07:27.405Z,2.40
2023-01-21T18:09:57.728Z,2.40
2023-01-21T18:12:25.337Z,2.40
2023-01-21T18:14:52.462Z,2.40
2023-01-21T18:17:23.066Z,2.40
2023-01-21T18:19:50.752Z,2.40
2023-01-21T18:22:24.236Z,2.40
2023-01-21T18:24:51.486Z,2.40
2023-01-21T18:27:20.651Z,2.40
2023-01-21T18:29:48.197Z,2.40
2023-01-21T18:32:16.215Z,2.40
2023-01-21T18:34:43.998Z,2.40
2023-01-21T18:37:17.183Z,2.40
2023-01-21T18:39:45.355Z,2.30
2023-01-21T18:42:15.324Z,2.40
2023-01-21T18:44:44.584Z,2.40
2023-01-21T18:47:14.220Z,2.40
2023-01-21T18:49:41.923Z,2.30
2023-01-21T18:52:19.573Z,2.30
2023-01-21T18:54:47.169Z,2.30
2023-01-21T18:57:18.302Z,2.30
2023-01-21T18:59:45.460Z,2.30
2023-01-21T19:02:15.914Z,2.40
2023-01-21T19:04:43.833Z,2.40
2023-01-21T19:07:18.595Z,2.30
2023-01-21T19:09:46.347Z,2.30
2023-01-21T19:12:14.519Z,2.30
2023-01-21T19:14:41.707Z,2.30
2023-01-21T19:17:14.941Z,2.30
2023-01-21T19:19:42.244Z,2.30
2023-01-21T19:22:16.009Z,2.20
2023-01-21T19:24:43.207Z,2.20
2023-01-21T19:27:19.159Z,2.10
2023-01-21T19:29:46.313Z,2.10
2023-01-21T19:32:14.904Z,2.10
2023-01-21T19:34:42.639Z,2.10
2023-01-21T19:37:22.819Z,2.20
2023-01-21T19:39:50.063Z,2.20
2023-01-21T19:42:18.103Z,2.20
2023-01-21T19:44:45.295Z,2.10
2023-01-21T19:47:23.805Z,2.10
2023-01-21T19:49:51.018Z,2.10
2023-01-21T19:52:18.235Z,2.10
2023-01-21T19:54:45.551Z,2.10
2023-01-21T19:57:16.636Z,2.00
2023-01-21T19:59:44.999Z,2.00
2023-01-21T20:02:12.725Z,2.00
2023-01-21T20:04:39.968Z,2.00
2023-01-21T20:07:07.395Z,2.00
2023-01-21T20:09:37.559Z,2.00
2023-01-21T20:12:06.609Z,2.10
2023-01-21T20:14:33.941Z,2.10
2023-01-21T20:17:03.068Z,2.10
2023-01-21T20:19:30.290Z,2.20
2023-01-21T20:22:02.339Z,2.20
2023-01-21T20:24:30.610Z,2.30
2023-01-21T20:26:58.869Z,2.30
2023-01-21T20:29:27.284Z,2.30
2023-01-21T20:31:57.377Z,2.30
2023-01-21T20:34:25.185Z,2.30
2023-01-21T20:36:54.222Z,2.40
2023-01-21T20:39:21.437Z,2.40
2023-01-21T20:41:48.614Z,2.50
2023-01-21T20:44:15.805Z,2.50
2023-01-21T20:46:43.975Z,2.60
2023-01-21T20:49:12.038Z,2.60
2023-01-21T20:51:39.191Z,2.50
2023-01-21T20:54:06.444Z,2.50
2023-01-21T20:56:33.698Z,2.50
2023-01-21T20:59:03.897Z,2.50
2023-01-21T21:01:35.515Z,2.40
2023-01-21T21:04:38.216Z,2.40
2023-01-21T21:07:05.409Z,2.40
2023-01-21T21:13:20.319Z,2.30
2023-01-21T21:15:50.432Z,2.20
2023-01-21T21:18:18.832Z,2.20
2023-01-21T21:20:46.143Z,2.20
2023-01-21T21:23:14.885Z,2.10
2023-01-21T21:25:44.930Z,2.10
2023-01-21T21:28:17.105Z,2.10
2023-01-21T21:30:45.157Z,2.10
2023-01-21T21:33:19.521Z,2.00
2023-01-21T21:35:47.059Z,2.00
2023-01-21T21:38:17.934Z,2.00
2023-01-21T21:40:47.371Z,2.00
2023-01-21T21:43:35.103Z,2.00
2023-01-21T21:46:28.447Z,2.00
2023-01-21T21:48:55.874Z,1.90
2023-01-21T21:51:23.619Z,1.90
2023-01-21T21:53:51.569Z,1.90
2023-01-21T21:56:20.899Z,1.90
2023-01-21T21:58:49.335Z,1.90
2023-01-21T22:01:23.286Z,1.90
2023-01-21T22:03:50.960Z,1.90
2023-01-21T22:06:21.158Z,1.90
2023-01-21T22:08:49.250Z,1.90
2023-01-21T22:11:18.851Z,1.90
2023-01-21T22:13:50.081Z,1.80
2023-01-21T22:16:23.990Z,1.90
2023-01-21T22:18:52.420Z,1.90
2023-01-21T22:21:32.024Z,1.90
2023-01-21T22:24:00.265Z,1.90
2023-01-21T22:26:28.730Z,1.90
2023-01-21T22:28:56.030Z,1.80
2023-01-21T22:31:25.718Z,1.80
2023-01-21T22:33:53.473Z,1.80
2023-01-21T22:36:24.516Z,1.80
2023-01-21T22:38:52.155Z,1.90
2023-01-21T22:41:21.866Z,1.90
2023-01-21T22:43:50.241Z,1.90
2023-01-21T22:46:23.411Z,1.90
2023-01-21T22:48:51.859Z,1.80
2023-01-21T22:51:19.721Z,1.90
2023-01-21T22:53:49.496Z,1.90
2023-01-21T22:56:19.878Z,1.80
2023-01-21T22:58:47.004Z,1.90
2023-01-21T23:01:40.926Z,1.90
2023-01-21T23:04:09.064Z,1.80
2023-01-21T23:06:38.368Z,1.80
2023-01-21T23:09:08.107Z,1.80
2023-01-21T23:11:38.328Z,1.90
2023-01-21T23:14:05.467Z,1.90
2023-01-21T23:16:32.622Z,1.80
2023-01-21T23:18:59.735Z,1.80
2023-01-21T23:21:28.312Z,1.80
2023-01-21T23:23:55.486Z,1.80
2023-01-21T23:26:22.860Z,1.80
2023-01-21T23:28:55.293Z,1.70
2023-01-21T23:31:22.804Z,1.70
2023-01-21T23:33:51.800Z,1.80
2023-01-21T23:36:19.574Z,1.80
2023-01-21T23:38:46.887Z,1.80
2023-01-21T23:41:19.892Z,1.80
2023-01-21T23:43:47.300Z,1.80
2023-01-21T23:46:16.766Z,1.80
2023-01-21T23:48:43.889Z,1.80
2023-01-21T23:51:13.441Z,1.80
2023-01-21T23:53:40.760Z,1.80
2023-01-21T23:56:14.664Z,1.80
2023-01-21T23:58:42.257Z,1.80
